Time;durP1;ratioP1;P1;durP2;ratioP2;P2;SDS_P1;SDS_P2;PMS_P1;PMS_P2;Temp;Humidity;BMP_temperature;BMP_pressure;BME280_temperature;BME280_humidity;BME280_pressure;Samples;Min_cycle;Max_cycle;Signal;HPM_P1;HPM_P2
2024/04/17 00:01:14;;;;;;;12.27;4.18;;;5.70;92.50;;;;;;22205232;26;20004;-77
2024/04/17 00:11:15;;;;;;;8.88;2.97;;;5.60;93.40;;;;;;22183309;26;20000;-78
2024/04/17 00:21:16;;;;;;;8.02;3.22;;;5.60;97.60;;;;;;22212286;26;20086;-77
2024/04/17 00:31:17;;;;;;;9.68;3.20;;;5.50;99.70;;;;;;22206250;26;20004;-78
2024/04/17 00:41:18;;;;;;;7.85;2.75;;;5.60;99.90;;;;;;22182148;26;19996;-77
2024/04/17 00:51:19;;;;;;;13.07;3.00;;;5.70;99.90;;;;;;22181213;26;20031;-78
2024/04/17 01:01:20;;;;;;;6.63;2.08;;;5.90;99.90;;;;;;22195437;26;20000;-76
2024/04/17 01:11:21;;;;;;;5.72;1.88;;;6.00;99.90;;;;;;22253630;26;20023;-77
2024/04/17 01:21:22;;;;;;;4.75;2.22;;;6.00;99.90;;;;;;22253530;26;20007;-78
2024/04/17 01:31:23;;;;;;;6.60;2.30;;;6.00;99.90;;;;;;22185664;26;20008;-77
2024/04/17 01:41:24;;;;;;;3.33;2.20;;;6.00;99.90;;;;;;22198824;26;20189;-78
2024/04/17 01:51:25;;;;;;;5.88;2.72;;;6.10;99.90;;;;;;22202794;26;20443;-77
2024/04/17 02:01:26;;;;;;;5.53;3.10;;;6.10;99.90;;;;;;22182121;26;20453;-78
2024/04/17 02:11:27;;;;;;;5.50;3.38;;;6.10;99.90;;;;;;22182437;26;20020;-79
2024/04/17 02:21:28;;;;;;;5.90;2.70;;;6.10;99.90;;;;;;22193959;26;20008;-78
2024/04/17 02:31:29;;;;;;;5.00;1.73;;;6.20;99.90;;;;;;22185071;26;20016;-77
2024/04/17 02:41:30;;;;;;;5.55;2.47;;;6.20;99.90;;;;;;22186234;26;20451;-78
2024/04/17 02:51:31;;;;;;;7.82;1.90;;;6.20;99.90;;;;;;22168953;26;20012;-78
2024/04/17 03:01:32;;;;;;;5.18;1.40;;;6.30;99.90;;;;;;22167515;26;20024;-77
2024/04/17 03:11:33;;;;;;;5.00;1.40;;;6.30;99.90;;;;;;22194221;26;20007;-77
2024/04/17 03:21:34;;;;;;;2.20;0.80;;;6.30;99.90;;;;;;22161383;26;20032;-77
2024/04/17 03:31:35;;;;;;;6.40;1.08;;;6.20;99.90;;;;;;22184233;26;20012;-77
2024/04/17 03:41:36;;;;;;;5.40;1.45;;;6.10;99.90;;;;;;22177390;26;20004;-78
2024/04/17 03:51:37;;;;;;;5.32;0.90;;;6.00;99.90;;;;;;22202038;26;20089;-78
2024/04/17 04:01:38;;;;;;;4.82;1.23;;;6.00;99.90;;;;;;22174928;26;20008;-78
2024/04/17 04:11:39;;;;;;;2.45;0.98;;;6.00;99.90;;;;;;22197049;26;20055;-78
2024/04/17 04:21:40;;;;;;;10.00;1.50;;;6.00;99.90;;;;;;22206661;26;20015;-78
2024/04/17 04:31:41;;;;;;;7.30;1.70;;;5.80;99.90;;;;;;22187251;26;19996;-78
2024/04/17 04:41:42;;;;;;;5.30;1.67;;;5.70;99.90;;;;;;22184133;26;20435;-77
2024/04/17 04:51:43;;;;;;;6.85;2.38;;;5.60;99.90;;;;;;22178953;26;20009;-78
2024/04/17 05:01:44;;;;;;;6.05;2.08;;;5.70;99.90;;;;;;22200697;26;20022;-79
2024/04/17 05:11:45;;;;;;;9.32;2.63;;;5.80;99.90;;;;;;22179118;26;20008;-78
2024/04/17 05:21:46;;;;;;;9.07;2.50;;;5.70;99.90;;;;;;22181764;26;20478;-79
2024/04/17 05:31:47;;;;;;;9.52;2.75;;;5.50;99.90;;;;;;22185351;26;20000;-77
2024/04/17 05:41:48;;;;;;;8.10;2.50;;;5.50;99.90;;;;;;22167148;26;20039;-75
2024/04/17 05:51:49;;;;;;;6.85;2.47;;;5.40;99.90;;;;;;22207199;26;20000;-75
2024/04/17 06:01:51;;;;;;;17.02;6.22;;;5.70;99.90;;;;;;22190212;26;20398;-74
2024/04/17 06:11:52;;;;;;;14.90;4.97;;;5.80;99.90;;;;;;22183852;26;20001;-74
2024/04/17 06:21:53;;;;;;;12.27;4.03;;;6.00;99.90;;;;;;22197231;26;20019;-79
2024/04/17 06:31:54;;;;;;;14.40;2.45;;;6.20;99.90;;;;;;22200685;26;19996;-75
2024/04/17 06:41:57;;;;;;;9.23;2.20;;;6.30;99.90;;;;;;22144262;26;20008;-75
2024/04/17 06:51:58;;;;;;;8.38;2.20;;;6.70;99.90;;;;;;22163410;26;20017;-77
2024/04/17 07:01:59;;;;;;;5.82;1.45;;;7.00;99.90;;;;;;22177371;26;20081;-77
2024/04/17 07:12:00;;;;;;;4.38;1.00;;;7.20;99.90;;;;;;22181147;26;20004;-76
2024/04/17 07:22:01;;;;;;;5.75;2.25;;;7.50;99.90;;;;;;22167599;26;20063;-76
2024/04/17 07:32:02;;;;;;;13.63;1.60;;;7.80;99.90;;;;;;22170240;26;20790;-76
2024/04/17 07:42:03;;;;;;;5.40;0.82;;;8.30;99.90;;;;;;22168303;26;20048;-78
2024/04/17 07:52:05;;;;;;;1.73;0.57;;;7.80;44.50;;;;;;22225068;26;20012;-77
2024/04/17 08:02:06;;;;;;;3.13;0.95;;;7.10;28.00;;;;;;22204193;26;20011;-75
2024/04/17 08:12:07;;;;;;;1.75;0.90;;;7.00;37.40;;;;;;22224638;26;20000;-75
2024/04/17 08:22:08;;;;;;;4.18;0.88;;;7.20;34.60;;;;;;22218563;26;20019;-73
2024/04/17 08:32:09;;;;;;;2.20;0.60;;;7.60;55.40;;;;;;22201141;26;19996;-74
2024/04/17 08:42:15;;;;;;;1.50;0.55;;;8.20;28.80;;;;;;22187582;26;20012;-75
2024/04/17 08:52:19;;;;;;;2.22;0.43;;;8.70;2.90;;;;;;22146351;26;20951;-75
2024/04/17 09:02:22;;;;;;;1.60;0.57;;;8.80;1.00;;;;;;22170284;26;20273;-77
2024/04/17 09:12:25;;;;;;;1.85;0.73;;;9.30;1.00;;;;;;22175778;26;20081;-77
2024/04/17 09:22:26;;;;;;;2.83;0.60;;;9.90;1.00;;;;;;22151959;26;20118;-78
2024/04/17 09:32:27;;;;;;;3.38;0.77;;;10.00;1.00;;;;;;22193512;26;20455;-77
2024/04/17 09:42:30;;;;;;;5.35;1.08;;;10.00;1.00;;;;;;22192339;26;20493;-79
2024/04/17 09:52:33;;;;;;;5.28;0.70;;;10.20;1.00;;;;;;22201312;26;20110;-78
2024/04/17 10:02:35;;;;;;;6.05;1.20;;;9.80;1.00;;;;;;22171254;26;19996;-77
2024/04/17 10:12:37;;;;;;;2.63;0.63;;;9.70;1.00;;;;;;22214113;26;19996;-78
2024/04/17 10:22:38;;;;;;;2.67;0.70;;;9.70;1.00;;;;;;22212129;26;20011;-79
2024/04/17 10:32:40;;;;;;;3.05;0.68;;;9.30;1.00;;;;;;22191422;26;20000;-79
2024/04/17 10:42:42;;;;;;;4.72;0.90;;;9.30;1.00;;;;;;22171800;26;20000;-76
2024/04/17 10:52:45;;;;;;;3.95;0.55;;;8.40;1.00;;;;;;22172806;26;19996;-76
2024/04/17 11:02:46;;;;;;;2.25;0.80;;;7.20;1.00;;;;;;22212881;26;20007;-77
2024/04/17 11:12:47;;;;;;;2.90;1.17;;;6.00;1.00;;;;;;22208765;26;19996;-79
2024/04/17 11:22:48;;;;;;;2.70;1.02;;;5.50;38.00;;;;;;22161052;26;20008;-79
2024/04/17 11:32:49;;;;;;;3.42;1.08;;;5.30;91.10;;;;;;22205699;26;20023;-76
2024/04/17 11:42:50;;;;;;;3.83;1.10;;;5.30;99.90;;;;;;22183196;26;20419;-77
2024/04/17 11:52:51;;;;;;;3.53;0.88;;;5.20;99.90;;;;;;22184031;26;22107;-77
2024/04/17 12:02:52;;;;;;;1.88;0.80;;;5.20;99.90;;;;;;22175443;26;20047;-76
2024/04/17 12:12:54;;;;;;;1.40;0.80;;;5.40;99.90;;;;;;22228491;26;20588;-75
2024/04/17 12:22:55;;;;;;;1.65;0.95;;;5.70;99.90;;;;;;22242473;26;20315;-76
2024/04/17 12:32:56;;;;;;;3.00;1.42;;;5.50;99.90;;;;;;22208369;26;19996;-76
2024/04/17 12:42:57;;;;;;;2.00;1.27;;;5.80;99.90;;;;;;22202675;26;20383;-76
2024/04/17 12:52:59;;;;;;;2.58;1.45;;;6.10;99.90;;;;;;22192600;26;20478;-76
2024/04/17 13:03:00;;;;;;;2.15;1.10;;;6.70;99.90;;;;;;22180846;26;20008;-76
2024/04/17 13:13:01;;;;;;;1.38;0.80;;;8.20;99.90;;;;;;22175332;26;22741;-77
2024/04/17 13:23:02;;;;;;;0.98;0.65;;;8.80;99.90;;;;;;22176576;26;20060;-77
2024/04/17 13:33:03;;;;;;;1.63;0.90;;;8.50;89.70;;;;;;22187548;26;19996;-76
2024/04/17 13:43:04;;;;;;;3.03;1.02;;;7.80;63.70;;;;;;22171920;26;20048;-77
2024/04/17 13:53:05;;;;;;;1.83;1.17;;;7.40;77.70;;;;;;22183781;26;19996;-77
2024/04/17 14:03:06;;;;;;;2.40;1.30;;;8.10;99.90;;;;;;22181023;26;20008;-77
2024/04/17 14:13:07;;;;;;;3.83;2.20;;;9.80;96.10;;;;;;22185278;26;20043;-77
2024/04/17 14:23:08;;;;;;;2.00;1.00;;;10.70;16.70;;;;;;22186602;26;20000;-76
2024/04/17 14:33:09;;;;;;;1.20;0.80;;;10.30;1.00;;;;;;22182936;26;20036;-77
2024/04/17 14:43:10;;;;;;;1.75;1.00;;;10.10;1.00;;;;;;22183222;26;19996;-77
2024/04/17 14:53:11;;;;;;;2.45;0.82;;;9.50;1.00;;;;;;22176704;26;20014;-78
2024/04/17 15:03:12;;;;;;;3.80;1.30;;;8.70;1.00;;;;;;22174955;26;20004;-75
2024/04/17 15:13:13;;;;;;;1.95;1.00;;;8.10;1.00;;;;;;22149864;26;20040;-77
2024/04/17 15:23:14;;;;;;;2.40;0.60;;;7.40;3.70;;;;;;22179738;26;20044;-76
2024/04/17 15:33:15;;;;;;;3.65;0.80;;;7.60;53.70;;;;;;22157714;26;20008;-75
2024/04/17 15:43:16;;;;;;;4.72;1.80;;;7.60;48.20;;;;;;22163189;26;20491;-76
2024/04/17 15:53:17;;;;;;;4.50;1.27;;;7.40;31.00;;;;;;22137732;26;20155;-75
2024/04/17 16:03:18;;;;;;;3.63;0.80;;;7.70;15.40;;;;;;22174562;26;20049;-77
2024/04/17 16:13:19;;;;;;;10.75;4.72;;;7.90;1.00;;;;;;22180982;26;20057;-76
2024/04/17 16:34:27;;;;;;;5.40;0.60;;;8.40;1.00;;;;;;21696621;26;20083;-76
2024/04/17 16:44:30;;;;;;;3.88;0.90;;;8.30;1.00;;;;;;22153593;26;20067;-79
2024/04/17 16:54:31;;;;;;;2.33;0.98;;;7.90;1.00;;;;;;22169230;26;20007;-77
2024/04/17 17:04:32;;;;;;;2.47;0.65;;;7.50;8.40;;;;;;22191853;26;19996;-77
2024/04/17 17:14:33;;;;;;;2.72;0.75;;;7.40;30.40;;;;;;22197660;26;19996;-77
2024/04/17 17:24:34;;;;;;;4.95;2.15;;;7.60;24.50;;;;;;22203940;26;19996;-77
2024/04/17 17:34:35;;;;;;;2.22;0.75;;;7.50;36.90;;;;;;22191844;26;20012;-76
2024/04/17 17:44:35;;;;;;;7.00;1.35;;;7.30;50.30;;;;;;22190011;26;20012;-77
2024/04/17 17:54:36;;;;;;;3.35;1.30;;;7.20;59.30;;;;;;22167025;26;20010;-80
2024/04/17 18:04:37;;;;;;;4.32;1.60;;;7.00;76.60;;;;;;22171682;26;20000;-77
2024/04/17 18:14:38;;;;;;;2.05;1.08;;;6.90;83.90;;;;;;22180246;26;20032;-78
2024/04/17 18:24:39;;;;;;;2.67;1.10;;;6.80;88.40;;;;;;22203597;26;20011;-77
2024/04/17 18:34:40;;;;;;;7.78;5.05;;;6.60;90.90;;;;;;22176883;26;20011;-77
2024/04/17 18:44:42;;;;;;;4.07;1.67;;;6.50;94.40;;;;;;22216747;26;20023;-77
2024/04/17 18:54:47;;;;;;;5.97;3.60;;;6.30;98.10;;;;;;22218429;26;19996;-77
2024/04/17 19:04:51;;;;;;;5.65;2.42;;;6.20;99.90;;;;;;22216512;26;20844;-77
2024/04/17 19:14:52;;;;;;;4.72;1.40;;;6.10;99.90;;;;;;22220231;26;20359;-77
2024/04/17 19:24:53;;;;;;;5.63;1.65;;;6.20;99.90;;;;;;22203351;26;20351;-77
2024/04/17 19:34:56;;;;;;;4.78;3.28;;;6.20;99.90;;;;;;22229074;26;20479;-74
2024/04/17 19:44:57;;;;;;;4.85;1.98;;;6.20;99.90;;;;;;22230882;26;20761;-75
2024/04/17 19:54:57;;;;;;;5.38;1.67;;;6.20;99.90;;;;;;22229315;26;20472;-75
2024/04/17 20:04:58;;;;;;;6.38;2.40;;;6.00;99.90;;;;;;22209427;26;20043;-74
2024/04/17 20:14:59;;;;;;;4.35;1.65;;;5.90;99.90;;;;;;22232818;26;20715;-74
2024/04/17 20:25:00;;;;;;;5.22;2.67;;;5.80;99.90;;;;;;22206462;26;19996;-74
2024/04/17 20:35:04;;;;;;;3.20;1.88;;;5.70;99.90;;;;;;22208303;26;20461;-75
2024/04/17 20:45:05;;;;;;;5.57;2.75;;;5.60;99.90;;;;;;22225793;26;20011;-79
2024/04/17 20:55:06;;;;;;;4.93;2.63;;;5.70;99.90;;;;;;22217704;26;20016;-78
2024/04/17 21:05:07;;;;;;;4.25;2.05;;;5.70;99.90;;;;;;22207142;26;20340;-78
2024/04/17 21:15:08;;;;;;;6.25;1.98;;;5.80;99.90;;;;;;22199939;26;20011;-77
2024/04/17 21:25:09;;;;;;;5.63;1.48;;;5.80;99.90;;;;;;22201020;26;19996;-77
2024/04/17 21:35:10;;;;;;;3.00;1.20;;;5.80;99.90;;;;;;22214832;26;20007;-78
2024/04/17 21:45:17;;;;;;;2.83;0.88;;;6.00;99.90;;;;;;22213012;26;20476;-77
2024/04/17 21:55:18;;;;;;;2.03;1.00;;;5.90;99.90;;;;;;22225668;26;20349;-75
2024/04/17 22:05:20;;;;;;;1.95;0.90;;;5.80;99.90;;;;;;22198955;26;20004;-74
2024/04/17 22:15:21;;;;;;;2.45;1.00;;;5.70;99.90;;;;;;22208737;26;20073;-76
2024/04/17 22:25:23;;;;;;;1.48;0.90;;;5.70;99.90;;;;;;22170154;26;19996;-75
2024/04/17 22:35:24;;;;;;;2.97;1.10;;;5.70;99.90;;;;;;22264826;26;20000;-75
2024/04/17 22:45:25;;;;;;;2.00;1.10;;;5.70;99.90;;;;;;22258768;26;20030;-76
2024/04/17 22:55:26;;;;;;;3.13;1.40;;;5.60;99.90;;;;;;22199214;26;20052;-74
2024/04/17 23:05:27;;;;;;;2.70;1.40;;;5.50;99.90;;;;;;22171330;26;20249;-77
2024/04/17 23:15:28;;;;;;;3.22;1.00;;;5.40;99.90;;;;;;22197772;26;19996;-78
2024/04/17 23:25:29;;;;;;;2.90;1.70;;;5.40;99.90;;;;;;22196697;26;20016;-77
2024/04/17 23:35:30;;;;;;;3.70;1.80;;;5.30;99.90;;;;;;22194058;26;20036;-78
2024/04/17 23:45:31;;;;;;;3.17;1.52;;;5.20;99.90;;;;;;22199860;26;20012;-79
2024/04/17 23:55:32;;;;;;;2.70;1.30;;;5.20;99.90;;;;;;22178035;26;20015;-78
